Terminal Aerodrome Forecast
Issued by NWS

Home | Current Version | Previous Version | Text Only | Print | Product List | Glossary On
Versions: 1 2 3 4 5 6 7 8 9 10 11 12 13 14 15 16 17 18 19 20 21 22 23 24 25 26 27 28 29 30 31 32 33 34 35
000
FTAK31 PANC 161137
TAFACD
TAF
PACD 161137Z 1612/1712 15018G28KT 4SM -RA BKN015 OVC022
     FM161500 18012KT 6SM -RA BKN015 OVC025
     FM162100 23016KT 6SM -SHRA BKN025
     FM170300 28015G25KT 6SM -SHRA BKN025
     FM170900 26012KT P6SM OVC015=

USA.gov is the U.S. government's official web portal to all federal, state and local government web resources and services.